Time;durP1;ratioP1;P1;durP2;ratioP2;P2;SDS_P1;SDS_P2;PMS_P1;PMS_P2;Temp;Humidity;BMP_temperature;BMP_pressure;BME280_temperature;BME280_humidity;BME280_pressure;Samples;Min_cycle;Max_cycle;Signal;HPM_P1;HPM_P2
2021/12/29 00:00:40;;;;;;;;;;;;;;;;;;5072346;28;20019;-75
2021/12/29 00:03:06;;;;;;;;;;;;;;;;;;5072673;28;20474;-76
2021/12/29 00:05:33;;;;;;;;;;;;;;;;;;5072449;28;20301;-76
2021/12/29 00:08:00;;;;;;;;;;;;;;;;;;5072990;28;19924;-76
2021/12/29 00:10:27;;;;;;;;;;;;;;;;;;5072374;28;19924;-77
2021/12/29 00:12:55;;;;;;;;;;;;;;;;;;5072626;28;19931;-76
2021/12/29 00:15:24;;;;;;;;;;;;;;;;;;5071838;28;20892;-75
2021/12/29 00:17:51;;;;;;;;;;;;;;;;;;5072739;28;19931;-75
2021/12/29 00:20:18;;;;;;;;;;;;;;;;;;5072329;28;20011;-76
2021/12/29 00:22:45;;;;;;;;;;;;;;;;;;5072585;28;19964;-75
2021/12/29 00:25:12;;;;;;;;;;;;;;;;;;5071938;28;19933;-75
2021/12/29 00:27:39;;;;;;;;;;;;;;;;;;5072074;28;19925;-75
2021/12/29 00:30:06;;;;;;;;;;;;;;;;;;5071822;28;20449;-76
2021/12/29 00:32:33;;;;;;;;;;;;;;;;;;5072356;28;20266;-76
2021/12/29 00:35:00;;;;;;;;;;;;;;;;;;5072230;28;20281;-75
2021/12/29 00:37:27;;;;;;;;;;;;;;;;;;5071846;28;19925;-75
2021/12/29 00:39:54;;;;;;;;;;;;;;;;;;5072157;28;19925;-75
2021/12/29 00:42:21;;;;;;;;;;;;;;;;;;5071846;28;20004;-75
2021/12/29 00:44:49;;;;;;;;;;;;;;;;;;5071749;28;19931;-75
2021/12/29 00:47:16;;;;;;;;;;;;;;;;;;5072013;28;19924;-75
2021/12/29 00:49:45;;;;;;;;;;;;;;;;;;5071694;28;20011;-74
2021/12/29 00:52:12;;;;;;;;;;;;;;;;;;5071709;28;20024;-75
2021/12/29 00:54:39;;;;;;;;;;;;;;;;;;5071591;28;19960;-75
2021/12/29 00:57:06;;;;;;;;;;;;;;;;;;5071745;28;20292;-75
2021/12/29 00:59:33;;;;;;;;;;;;;;;;;;5071579;28;20011;-73
2021/12/29 01:02:00;;;;;;;;;;;;;;;;;;5072240;28;19924;-74
2021/12/29 01:04:27;;;;;;;;;;;;;;;;;;5071578;28;20019;-74
2021/12/29 01:06:54;;;;;;;;;;;;;;;;;;5069683;28;19925;-75
2021/12/29 01:09:21;;;;;;;;;;;;;;;;;;5071540;28;19924;-75
2021/12/29 01:11:48;;;;;;;;;;;;;;;;;;5071132;28;19931;-75
2021/12/29 01:14:21;;;;;;;;;;;;;;;;;;5071937;28;19947;-75
2021/12/29 01:16:48;;;;;;;;;;;;;;;;;;5071438;28;20015;-75
2021/12/29 01:19:15;;;;;;;;;;;;;;;;;;5071403;28;19939;-75
2021/12/29 01:21:42;;;;;;;;;;;;;;;;;;5071138;28;20044;-73
2021/12/29 01:24:09;;;;;;;;;;;;;;;;;;5071127;28;20011;-74
2021/12/29 01:26:36;;;;;;;;;;;;;;;;;;5071067;28;20019;-74
2021/12/29 01:29:03;;;;;;;;;;;;;;;;;;5071282;28;19928;-75
2021/12/29 01:31:30;;;;;;;;;;;;;;;;;;5071581;28;19925;-74
2021/12/29 01:33:58;;;;;;;;;;;;;;;;;;5070707;28;19950;-74
2021/12/29 01:36:24;;;;;;;;;;;;;;;;;;5071924;28;19924;-74
2021/12/29 01:38:51;;;;;;;;;;;;;;;;;;5071420;28;19931;-75
2021/12/29 01:41:18;;;;;;;;;;;;;;;;;;5071301;28;19930;-75
2021/12/29 01:43:45;;;;;;;;;;;;;;;;;;5069367;28;19931;-75
2021/12/29 01:46:12;;;;;;;;;;;;;;;;;;5063017;28;20318;-76
2021/12/29 01:48:39;;;;;;;;;;;;;;;;;;5066212;28;19931;-75
2021/12/29 01:51:06;;;;;;;;;;;;;;;;;;5070109;28;20015;-74
2021/12/29 01:53:34;;;;;;;;;;;;;;;;;;5068706;28;19932;-73
2021/12/29 01:56:01;;;;;;;;;;;;;;;;;;5066675;28;19979;-74
2021/12/29 01:58:28;;;;;;;;;;;;;;;;;;5070003;28;19924;-75
2021/12/29 02:00:57;;;;;;;;;;;;;;;;;;5069820;28;19924;-74
2021/12/29 02:03:24;;;;;;;;;;;;;;;;;;5068193;28;19939;-74
2021/12/29 02:05:52;;;;;;;;;;;;;;;;;;5066182;28;19929;-74
2021/12/29 02:08:22;;;;;;;;;;;;;;;;;;5070126;28;19970;-74
2021/12/29 02:10:49;;;;;;;;;;;;;;;;;;5069624;28;20017;-74
2021/12/29 02:13:16;;;;;;;;;;;;;;;;;;5074240;28;19924;-74
2021/12/29 02:15:43;;;;;;;;;;;;;;;;;;5074866;28;19925;-74
2021/12/29 02:18:15;;;;;;;;;;;;;;;;;;5074395;28;19924;-75
2021/12/29 02:20:42;;;;;;;;;;;;;;;;;;5074413;28;20075;-74
2021/12/29 02:23:16;;;;;;;;;;;;;;;;;;5074186;28;19925;-74
2021/12/29 02:25:48;;;;;;;;;;;;;;;;;;5074738;28;19987;-74
2021/12/29 02:28:15;;;;;;;;;;;;;;;;;;5074690;28;20038;-74
2021/12/29 02:30:42;;;;;;;;;;;;;;;;;;5074199;28;19928;-74
2021/12/29 02:33:13;;;;;;;;;;;;;;;;;;5074427;28;19932;-73
2021/12/29 02:35:40;;;;;;;;;;;;;;;;;;5074672;28;19931;-74
2021/12/29 02:38:10;;;;;;;;;;;;;;;;;;5074390;28;19925;-73
2021/12/29 02:40:37;;;;;;;;;;;;;;;;;;5073978;28;20429;-73
2021/12/29 02:43:04;;;;;;;;;;;;;;;;;;5074849;28;20334;-74
2021/12/29 02:45:33;;;;;;;;;;;;;;;;;;5074279;28;20374;-74
2021/12/29 02:48:00;;;;;;;;;;;;;;;;;;5075033;28;19924;-74
2021/12/29 02:50:27;;;;;;;;;;;;;;;;;;5073550;28;19970;-74
2021/12/29 02:52:54;;;;;;;;;;;;;;;;;;5074183;28;19924;-74
2021/12/29 02:55:21;;;;;;;;;;;;;;;;;;5074309;28;19924;-74
2021/12/29 02:57:48;;;;;;;;;;;;;;;;;;5073572;28;19935;-74
2021/12/29 03:00:15;;;;;;;;;;;;;;;;;;5073388;28;19931;-73
2021/12/29 03:02:42;;;;;;;;;;;;;;;;;;5073916;28;19929;-73
2021/12/29 03:05:09;;;;;;;;;;;;;;;;;;5074495;28;19924;-73
2021/12/29 03:07:36;;;;;;;;;;;;;;;;;;5073725;28;19924;-74
2021/12/29 03:10:03;;;;;;;;;;;;;;;;;;5073738;28;19931;-72
2021/12/29 03:12:30;;;;;;;;;;;;;;;;;;5073478;28;19924;-74
2021/12/29 03:14:58;;;;;;;;;;;;;;;;;;5073604;28;20022;-74
2021/12/29 03:17:25;;;;;;;;;;;;;;;;;;5074035;28;19932;-74
2021/12/29 03:19:52;;;;;;;;;;;;;;;;;;5073481;28;19929;-74
2021/12/29 03:22:19;;;;;;;;;;;;;;;;;;5073569;28;20271;-75
2021/12/29 03:24:46;;;;;;;;;;;;;;;;;;5073349;28;19975;-74
2021/12/29 03:27:13;;;;;;;;;;;;;;;;;;5073379;28;20019;-72
2021/12/29 03:29:40;;;;;;;;;;;;;;;;;;5073497;28;19924;-74
2021/12/29 03:32:09;;;;;;;;;;;;;;;;;;5073132;28;19924;-74
2021/12/29 03:34:36;;;;;;;;;;;;;;;;;;5073187;28;20022;-74
2021/12/29 03:37:03;;;;;;;;;;;;;;;;;;5073015;28;20433;-74
2021/12/29 03:39:37;;;;;;;;;;;;;;;;;;5073009;28;20412;-74
2021/12/29 03:42:04;;;;;;;;;;;;;;;;;;5072743;28;19928;-74
2021/12/29 03:44:31;;;;;;;;;;;;;;;;;;5073313;28;19931;-74
2021/12/29 03:46:58;;;;;;;;;;;;;;;;;;5073128;28;19950;-74
2021/12/29 03:49:25;;;;;;;;;;;;;;;;;;5073101;28;19946;-74
2021/12/29 03:51:52;;;;;;;;;;;;;;;;;;5072610;28;19928;-74
2021/12/29 03:54:19;;;;;;;;;;;;;;;;;;5073153;28;20015;-74
2021/12/29 03:56:46;;;;;;;;;;;;;;;;;;5073292;28;19928;-74
2021/12/29 03:59:13;;;;;;;;;;;;;;;;;;5072774;28;20316;-75
2021/12/29 04:01:40;;;;;;;;;;;;;;;;;;5072774;28;19925;-74
2021/12/29 04:04:07;;;;;;;;;;;;;;;;;;5073127;28;20035;-74
2021/12/29 04:06:34;;;;;;;;;;;;;;;;;;5072549;28;19975;-74
2021/12/29 04:09:01;;;;;;;;;;;;;;;;;;5072727;28;19931;-75
2021/12/29 04:11:27;;;;;;;;;;;;;;;;;;5071601;28;19925;-74
2021/12/29 04:13:54;;;;;;;;;;;;;;;;;;5072686;28;19925;-74
2021/12/29 04:16:21;;;;;;;;;;;;;;;;;;5067462;28;20019;-74
2021/12/29 04:19:06;;;;;;;;;;;;;;;;;;5072452;28;19999;-74
2021/12/29 04:21:33;;;;;;;;;;;;;;;;;;5063270;28;19929;-74
2021/12/29 04:24:00;;;;;;;;;;;;;;;;;;5072658;28;19931;-74
2021/12/29 04:26:27;;;;;;;;;;;;;;;;;;5072562;28;19924;-74
2021/12/29 04:28:54;;;;;;;;;;;;;;;;;;5066024;28;19925;-74
2021/12/29 04:31:21;;;;;;;;;;;;;;;;;;5068134;28;20396;-73
2021/12/29 04:33:49;;;;;;;;;;;;;;;;;;5066636;28;20003;-73
2021/12/29 04:36:16;;;;;;;;;;;;;;;;;;5067187;28;19924;-74
2021/12/29 04:38:43;;;;;;;;;;;;;;;;;;5065774;28;20302;-74
2021/12/29 04:41:10;;;;;;;;;;;;;;;;;;5062965;28;19925;-74
2021/12/29 04:43:37;;;;;;;;;;;;;;;;;;5072063;28;20289;-74
2021/12/29 04:46:04;;;;;;;;;;;;;;;;;;5071888;28;19924;-74
2021/12/29 04:48:37;;;;;;;;;;;;;;;;;;5071479;28;20429;-74
2021/12/29 04:51:11;;;;;;;;;;;;;;;;;;5071812;28;20294;-72
2021/12/29 04:53:38;;;;;;;;;;;;;;;;;;5071920;28;19954;-73
2021/12/29 04:56:05;;;;;;;;;;;;;;;;;;5071967;28;20159;-74
2021/12/29 04:58:32;;;;;;;;;;;;;;;;;;5071246;28;19932;-74
2021/12/29 05:01:01;;;;;;;;;;;;;;;;;;5070935;28;20285;-74
2021/12/29 05:03:28;;;;;;;;;;;;;;;;;;5071677;28;20316;-74
2021/12/29 05:08:24;;;;;;;;;;;;;;;;;;5071342;28;19924;-74
2021/12/29 05:08:42;;;;;;;;;;;;;;;;;;5067855;28;19935;-74
2021/12/29 05:11:09;;;;;;;;;;;;;;;;;;5071251;28;20378;-74
2021/12/29 05:13:36;;;;;;;;;;;;;;;;;;5071436;28;19931;-74
2021/12/29 05:16:03;;;;;;;;;;;;;;;;;;5071029;28;19929;-74
2021/12/29 05:18:30;;;;;;;;;;;;;;;;;;5071832;28;19926;-74
2021/12/29 05:20:57;;;;;;;;;;;;;;;;;;5084537;22;19931;-75
2021/12/29 05:23:24;;;;;;;;;;;;;;;;;;5071408;28;20107;-77
2021/12/29 05:25:51;;;;;;;;;;;;;;;;;;5071045;28;19924;-77
2021/12/29 05:28:18;;;;;;;;;;;;;;;;;;5071336;28;19966;-77
2021/12/29 05:30:45;;;;;;;;;;;;;;;;;;5070950;28;19928;-77
2021/12/29 05:33:14;;;;;;;;;;;;;;;;;;5071332;28;19970;-76
2021/12/29 05:35:41;;;;;;;;;;;;;;;;;;5071421;28;19949;-76
2021/12/29 05:38:07;;;;;;;;;;;;;;;;;;5071487;28;19924;-76
2021/12/29 05:40:34;;;;;;;;;;;;;;;;;;5071379;28;20449;-75
2021/12/29 05:43:01;;;;;;;;;;;;;;;;;;5072101;28;19970;-75
2021/12/29 05:45:28;;;;;;;;;;;;;;;;;;5066757;28;20007;-76
2021/12/29 05:47:56;;;;;;;;;;;;;;;;;;5071590;28;19924;-75
2021/12/29 05:50:23;;;;;;;;;;;;;;;;;;5070776;28;19954;-78
2021/12/29 05:52:50;;;;;;;;;;;;;;;;;;5071503;28;19929;-77
2021/12/29 05:55:17;;;;;;;;;;;;;;;;;;5071131;28;20023;-77
2021/12/29 05:57:44;;;;;;;;;;;;;;;;;;5071696;28;20340;-78
2021/12/29 06:00:11;;;;;;;;;;;;;;;;;;5070869;28;19975;-77
2021/12/29 06:02:38;;;;;;;;;;;;;;;;;;5071288;28;19924;-78
2021/12/29 06:05:06;;;;;;;;;;;;;;;;;;5071427;28;19931;-77
2021/12/29 06:07:33;;;;;;;;;;;;;;;;;;5070745;28;19928;-77
2021/12/29 06:10:00;;;;;;;;;;;;;;;;;;5070753;28;19952;-78
2021/12/29 06:12:27;;;;;;;;;;;;;;;;;;5070756;28;19924;-76
2021/12/29 06:14:55;;;;;;;;;;;;;;;;;;5071201;28;20332;-76
2021/12/29 06:17:22;;;;;;;;;;;;;;;;;;5070763;28;19925;-76
2021/12/29 06:19:49;;;;;;;;;;;;;;;;;;5070539;28;19980;-76
2021/12/29 06:22:16;;;;;;;;;;;;;;;;;;5070642;28;20320;-77
2021/12/29 06:24:43;;;;;;;;;;;;;;;;;;5071282;28;19963;-76
2021/12/29 06:27:10;;;;;;;;;;;;;;;;;;5070706;28;19955;-76
2021/12/29 06:29:37;;;;;;;;;;;;;;;;;;5070548;28;20279;-76
2021/12/29 06:32:04;;;;;;;;;;;;;;;;;;5070729;28;19942;-77
2021/12/29 06:34:31;;;;;;;;;;;;;;;;;;5070506;28;19925;-77
2021/12/29 06:37:03;;;;;;;;;;;;;;;;;;5074378;28;20015;-77
2021/12/29 06:39:30;;;;;;;;;;;;;;;;;;5074586;28;19960;-77
2021/12/29 06:41:57;;;;;;;;;;;;;;;;;;5074505;28;19946;-76
2021/12/29 06:44:24;;;;;;;;;;;;;;;;;;5074289;28;20023;-77
2021/12/29 06:46:51;;;;;;;;;;;;;;;;;;5074100;28;19924;-77
2021/12/29 06:49:18;;;;;;;;;;;;;;;;;;5073921;28;20027;-77
2021/12/29 06:51:45;;;;;;;;;;;;;;;;;;5073497;28;19924;-77
2021/12/29 06:54:12;;;;;;;;;;;;;;;;;;5074686;28;19925;-77
2021/12/29 06:56:39;;;;;;;;;;;;;;;;;;5073966;28;19959;-77
2021/12/29 06:59:09;;;;;;;;;;;;;;;;;;5074161;28;19971;-77
2021/12/29 07:01:36;;;;;;;;;;;;;;;;;;5073447;28;19925;-77
2021/12/29 07:04:03;;;;;;;;;;;;;;;;;;5074290;28;19928;-77
2021/12/29 07:06:30;;;;;;;;;;;;;;;;;;5073698;28;19924;-77
2021/12/29 07:08:57;;;;;;;;;;;;;;;;;;5073902;28;20429;-77
2021/12/29 07:11:24;;;;;;;;;;;;;;;;;;5073767;28;19974;-77
2021/12/29 07:13:51;;;;;;;;;;;;;;;;;;5073515;28;20019;-77
2021/12/29 07:16:18;;;;;;;;;;;;;;;;;;5074007;28;20333;-78
2021/12/29 07:18:48;;;;;;;;;;;;;;;;;;5073946;28;20023;-77
2021/12/29 07:21:15;;;;;;;;;;;;;;;;;;5069317;28;19925;-77
2021/12/29 07:23:42;;;;;;;;;;;;;;;;;;5069799;28;19925;-78
2021/12/29 07:26:09;;;;;;;;;;;;;;;;;;5073499;28;19924;-76
2021/12/29 07:28:37;;;;;;;;;;;;;;;;;;5073721;28;20030;-77
2021/12/29 07:31:04;;;;;;;;;;;;;;;;;;5073996;28;19975;-77
2021/12/29 07:33:32;;;;;;;;;;;;;;;;;;5074426;28;20344;-77
2021/12/29 07:35:59;;;;;;;;;;;;;;;;;;5073680;28;19939;-76
2021/12/29 07:38:26;;;;;;;;;;;;;;;;;;5074024;28;19924;-77
2021/12/29 07:40:53;;;;;;;;;;;;;;;;;;5073120;28;19968;-77
2021/12/29 07:43:20;;;;;;;;;;;;;;;;;;5073574;28;19978;-76
2021/12/29 07:45:47;;;;;;;;;;;;;;;;;;5073229;28;19925;-75
2021/12/29 07:48:17;;;;;;;;;;;;;;;;;;5072291;28;20303;-76
2021/12/29 07:50:44;;;;;;;;;;;;;;;;;;5072939;28;19951;-75
2021/12/29 07:53:11;;;;;;;;;;;;;;;;;;5073260;28;20017;-76
2021/12/29 07:55:38;;;;;;;;;;;;;;;;;;5073301;28;20267;-75
2021/12/29 07:58:05;;;;;;;;;;;;;;;;;;5072839;28;20278;-76
2021/12/29 08:00:31;;;;;;;;;;;;;;;;;;5072937;28;19971;-77
2021/12/29 08:02:58;;;;;;;;;;;;;;;;;;5072751;28;19931;-78
2021/12/29 08:05:25;;;;;;;;;;;;;;;;;;5073462;28;20354;-77
2021/12/29 08:07:52;;;;;;;;;;;;;;;;;;5072980;28;19998;-76
2021/12/29 08:10:19;;;;;;;;;;;;;;;;;;5072269;28;19932;-76
2021/12/29 08:12:46;;;;;;;;;;;;;;;;;;5072824;28;20302;-76
2021/12/29 08:15:13;;;;;;;;;;;;;;;;;;5072551;28;19974;-75
2021/12/29 08:17:40;;;;;;;;;;;;;;;;;;5072637;28;20007;-76
2021/12/29 08:20:07;;;;;;;;;;;;;;;;;;5072137;28;19931;-76
2021/12/29 08:22:34;;;;;;;;;;;;;;;;;;5072614;28;20425;-76
2021/12/29 08:25:01;;;;;;;;;;;;;;;;;;5072265;28;19978;-76
2021/12/29 08:27:28;;;;;;;;;;;;;;;;;;5072261;28;19980;-76
2021/12/29 08:29:55;;;;;;;;;;;;;;;;;;5072597;28;19974;-76
2021/12/29 08:32:22;;;;;;;;;;;;;;;;;;5072071;28;20114;-76
2021/12/29 08:34:49;;;;;;;;;;;;;;;;;;5072077;28;20015;-77
2021/12/29 08:37:16;;;;;;;;;;;;;;;;;;5065045;28;19971;-77
2021/12/29 08:39:43;;;;;;;;;;;;;;;;;;5072041;28;20401;-76
2021/12/29 08:42:10;;;;;;;;;;;;;;;;;;5071639;28;19925;-76
2021/12/29 08:44:37;;;;;;;;;;;;;;;;;;5071803;28;20019;-76
2021/12/29 08:47:04;;;;;;;;;;;;;;;;;;5072102;28;19928;-77
2021/12/29 08:49:31;;;;;;;;;;;;;;;;;;5071679;28;19967;-76
2021/12/29 08:51:58;;;;;;;;;;;;;;;;;;5071597;28;19924;-77
2021/12/29 08:54:26;;;;;;;;;;;;;;;;;;5071695;28;20011;-77
2021/12/29 08:56:54;;;;;;;;;;;;;;;;;;5071906;28;19925;-77
2021/12/29 08:59:21;;;;;;;;;;;;;;;;;;5071234;28;19932;-77
2021/12/29 09:01:48;;;;;;;;;;;;;;;;;;5071186;28;19924;-76
2021/12/29 09:04:15;;;;;;;;;;;;;;;;;;5071694;28;20316;-76
2021/12/29 09:06:42;;;;;;;;;;;;;;;;;;5071491;28;19924;-76
2021/12/29 09:09:09;;;;;;;;;;;;;;;;;;5072035;28;19972;-76
2021/12/29 09:11:36;;;;;;;;;;;;;;;;;;5071348;28;19931;-76
2021/12/29 09:14:03;;;;;;;;;;;;;;;;;;5071163;28;20378;-76
2021/12/29 09:16:30;;;;;;;;;;;;;;;;;;5071548;28;19964;-76
2021/12/29 09:18:57;;;;;;;;;;;;;;;;;;5071549;28;20017;-76
2021/12/29 09:21:26;;;;;;;;;;;;;;;;;;5070851;28;19997;-76
2021/12/29 09:23:53;;;;;;;;;;;;;;;;;;5071508;28;20011;-76
2021/12/29 09:26:20;;;;;;;;;;;;;;;;;;5071875;28;20011;-75
2021/12/29 09:28:49;;;;;;;;;;;;;;;;;;5071039;28;20459;-76
2021/12/29 09:31:16;;;;;;;;;;;;;;;;;;5071615;28;19924;-75
2021/12/29 09:33:43;;;;;;;;;;;;;;;;;;5070980;28;20011;-76
2021/12/29 09:36:10;;;;;;;;;;;;;;;;;;5071395;28;20390;-77
2021/12/29 09:38:39;;;;;;;;;;;;;;;;;;5071078;28;19947;-76
2021/12/29 09:41:06;;;;;;;;;;;;;;;;;;5070991;28;19924;-76
2021/12/29 09:43:33;;;;;;;;;;;;;;;;;;5070987;28;19931;-76
2021/12/29 09:46:00;;;;;;;;;;;;;;;;;;5071310;28;20379;-76
2021/12/29 09:48:27;;;;;;;;;;;;;;;;;;5071246;28;19972;-76
2021/12/29 09:50:54;;;;;;;;;;;;;;;;;;5070360;28;20006;-76
2021/12/29 09:53:21;;;;;;;;;;;;;;;;;;5070430;28;19924;-76
2021/12/29 09:55:48;;;;;;;;;;;;;;;;;;5074537;28;19971;-76
2021/12/29 09:58:15;;;;;;;;;;;;;;;;;;5072460;28;19924;-75
2021/12/29 10:00:42;;;;;;;;;;;;;;;;;;5071971;28;20024;-77
2021/12/29 10:03:09;;;;;;;;;;;;;;;;;;5073079;28;19987;-75
2021/12/29 10:05:36;;;;;;;;;;;;;;;;;;5073467;28;19967;-75
2021/12/29 10:08:03;;;;;;;;;;;;;;;;;;5072935;28;19994;-78
2021/12/29 10:10:30;;;;;;;;;;;;;;;;;;5075457;28;19971;-77
2021/12/29 10:12:57;;;;;;;;;;;;;;;;;;5076522;28;20003;-76
2021/12/29 10:15:24;;;;;;;;;;;;;;;;;;5076241;28;20029;-77
2021/12/29 10:17:51;;;;;;;;;;;;;;;;;;5076802;28;19968;-76
2021/12/29 10:20:18;;;;;;;;;;;;;;;;;;5075196;28;20101;-76
2021/12/29 10:22:45;;;;;;;;;;;;;;;;;;5075512;28;19925;-76
2021/12/29 10:25:12;;;;;;;;;;;;;;;;;;5075213;28;19979;-76
2021/12/29 10:27:39;;;;;;;;;;;;;;;;;;5075328;28;20374;-77
2021/12/29 10:30:06;;;;;;;;;;;;;;;;;;5075188;28;20015;-76
2021/12/29 10:32:33;;;;;;;;;;;;;;;;;;5075956;28;20015;-76
2021/12/29 10:35:00;;;;;;;;;;;;;;;;;;5071592;28;19951;-77
2021/12/29 10:37:27;;;;;;;;;;;;;;;;;;5076869;28;19963;-76
2021/12/29 10:39:56;;;;;;;;;;;;;;;;;;5075881;28;20018;-77
2021/12/29 10:42:23;;;;;;;;;;;;;;;;;;5075892;28;19925;-76
2021/12/29 10:44:50;;;;;;;;;;;;;;;;;;5076081;28;19939;-76
2021/12/29 10:47:17;;;;;;;;;;;;;;;;;;5075231;28;19924;-77
2021/12/29 10:49:44;;;;;;;;;;;;;;;;;;5074111;28;19967;-76
2021/12/29 10:52:11;;;;;;;;;;;;;;;;;;5075490;28;19964;-76
2021/12/29 10:54:38;;;;;;;;;;;;;;;;;;5075542;28;19924;-76
2021/12/29 10:57:05;;;;;;;;;;;;;;;;;;5074484;28;20011;-77
2021/12/29 10:59:33;;;;;;;;;;;;;;;;;;5074549;28;20300;-77
2021/12/29 11:02:00;;;;;;;;;;;;;;;;;;5073779;28;19929;-78
2021/12/29 11:04:27;;;;;;;;;;;;;;;;;;5074182;28;19925;-77
2021/12/29 11:06:56;;;;;;;;;;;;;;;;;;5074305;28;20316;-77
2021/12/29 11:09:23;;;;;;;;;;;;;;;;;;5073756;28;19928;-76
2021/12/29 11:11:50;;;;;;;;;;;;;;;;;;5073300;28;20015;-76
2021/12/29 11:14:17;;;;;;;;;;;;;;;;;;5073799;28;19924;-76
2021/12/29 11:16:44;;;;;;;;;;;;;;;;;;5074110;28;19929;-77
2021/12/29 11:19:11;;;;;;;;;;;;;;;;;;5074527;28;19924;-77
2021/12/29 11:21:38;;;;;;;;;;;;;;;;;;5072861;22;20341;-74
2021/12/29 11:24:05;;;;;;;;;;;;;;;;;;5053420;28;19933;-74
2021/12/29 11:26:32;;;;;;;;;;;;;;;;;;5053513;28;20387;-74
2021/12/29 11:28:59;;;;;;;;;;;;;;;;;;5053689;28;19925;-76
2021/12/29 11:31:26;;;;;;;;;;;;;;;;;;5066702;28;19935;-74
2021/12/29 11:33:52;;;;;;;;;;;;;;;;;;5073046;28;19928;-73
2021/12/29 11:36:19;;;;;;;;;;;;;;;;;;5073303;28;20107;-74
2021/12/29 11:38:46;;;;;;;;;;;;;;;;;;5073267;28;19925;-74
2021/12/29 11:41:17;;;;;;;;;;;;;;;;;;5072976;28;19924;-73
2021/12/29 11:43:45;;;;;;;;;;;;;;;;;;5072900;28;20421;-73
2021/12/29 11:46:12;;;;;;;;;;;;;;;;;;5073296;28;20294;-73
2021/12/29 11:48:39;;;;;;;;;;;;;;;;;;5073071;28;19931;-73
2021/12/29 11:51:06;;;;;;;;;;;;;;;;;;5072935;28;19925;-73
2021/12/29 11:53:33;;;;;;;;;;;;;;;;;;5072290;28;19936;-73
2021/12/29 11:56:00;;;;;;;;;;;;;;;;;;5073238;28;19969;-73
2021/12/29 11:58:27;;;;;;;;;;;;;;;;;;5072886;28;19931;-73
2021/12/29 12:00:54;;;;;;;;;;;;;;;;;;5072644;28;19925;-74
2021/12/29 12:03:21;;;;;;;;;;;;;;;;;;5072939;28;20222;-74
2021/12/29 12:05:48;;;;;;;;;;;;;;;;;;5072859;28;20373;-73
2021/12/29 12:08:15;;;;;;;;;;;;;;;;;;5072720;28;19928;-73
2021/12/29 12:10:42;;;;;;;;;;;;;;;;;;5072354;28;20279;-73
2021/12/29 12:13:09;;;;;;;;;;;;;;;;;;5072471;28;19924;-74
2021/12/29 12:15:36;;;;;;;;;;;;;;;;;;5072742;28;20259;-74
2021/12/29 12:18:07;;;;;;;;;;;;;;;;;;5072731;28;19924;-73
2021/12/29 12:20:34;;;;;;;;;;;;;;;;;;5071834;28;20332;-74
2021/12/29 12:23:01;;;;;;;;;;;;;;;;;;5071435;28;19932;-73
2021/12/29 12:25:28;;;;;;;;;;;;;;;;;;5072210;28;19928;-74
2021/12/29 12:28:00;;;;;;;;;;;;;;;;;;5072243;28;19925;-74
2021/12/29 12:30:27;;;;;;;;;;;;;;;;;;5072142;28;19974;-74
2021/12/29 12:32:54;;;;;;;;;;;;;;;;;;5071054;28;19931;-74
2021/12/29 12:35:21;;;;;;;;;;;;;;;;;;5072343;28;19925;-73
2021/12/29 12:37:48;;;;;;;;;;;;;;;;;;5071955;28;19928;-75
2021/12/29 12:40:15;;;;;;;;;;;;;;;;;;5071755;28;19931;-72
2021/12/29 12:42:42;;;;;;;;;;;;;;;;;;5071612;28;19928;-73
2021/12/29 12:45:09;;;;;;;;;;;;;;;;;;5072047;28;19925;-73
2021/12/29 12:47:35;;;;;;;;;;;;;;;;;;5071849;28;20382;-73
2021/12/29 12:50:02;;;;;;;;;;;;;;;;;;5071551;28;19925;-74
2021/12/29 12:52:29;;;;;;;;;;;;;;;;;;5071917;28;20484;-73
2021/12/29 12:54:56;;;;;;;;;;;;;;;;;;5071974;28;19924;-74
2021/12/29 12:57:23;;;;;;;;;;;;;;;;;;5072060;28;20310;-73
2021/12/29 12:59:50;;;;;;;;;;;;;;;;;;5071466;28;19928;-73
2021/12/29 13:02:17;;;;;;;;;;;;;;;;;;5066016;28;19930;-73
2021/12/29 13:04:44;;;;;;;;;;;;;;;;;;5071395;28;19928;-73
2021/12/29 13:07:11;;;;;;;;;;;;;;;;;;5071908;28;19925;-73
2021/12/29 13:09:38;;;;;;;;;;;;;;;;;;5071529;28;19928;-73
2021/12/29 13:12:09;;;;;;;;;;;;;;;;;;5070801;28;19924;-73
2021/12/29 13:14:36;;;;;;;;;;;;;;;;;;5071406;28;19982;-73
2021/12/29 13:17:02;;;;;;;;;;;;;;;;;;5071448;28;19924;-74
2021/12/29 13:19:29;;;;;;;;;;;;;;;;;;5071710;28;19930;-74
2021/12/29 13:21:59;;;;;;;;;;;;;;;;;;5070440;28;19928;-74
2021/12/29 13:24:26;;;;;;;;;;;;;;;;;;5071425;28;19924;-74
2021/12/29 13:26:55;;;;;;;;;;;;;;;;;;5071606;28;20298;-73
2021/12/29 13:29:23;;;;;;;;;;;;;;;;;;5071489;28;19929;-74
2021/12/29 13:31:50;;;;;;;;;;;;;;;;;;5070632;28;19924;-74
2021/12/29 13:34:17;;;;;;;;;;;;;;;;;;5071159;28;19929;-74
2021/12/29 13:36:45;;;;;;;;;;;;;;;;;;5066899;28;20380;-74
2021/12/29 13:39:12;;;;;;;;;;;;;;;;;;5071089;28;20385;-74
2021/12/29 13:41:39;;;;;;;;;;;;;;;;;;5070036;28;19925;-74
2021/12/29 13:44:06;;;;;;;;;;;;;;;;;;5071069;28;19924;-74
2021/12/29 13:46:34;;;;;;;;;;;;;;;;;;5071360;28;19925;-74
2021/12/29 13:49:01;;;;;;;;;;;;;;;;;;5071434;28;19924;-73
2021/12/29 13:51:28;;;;;;;;;;;;;;;;;;5070551;28;19947;-74
2021/12/29 13:53:54;;;;;;;;;;;;;;;;;;5071011;28;19931;-75
2021/12/29 13:56:21;;;;;;;;;;;;;;;;;;5070760;28;19929;-74
2021/12/29 13:58:48;;;;;;;;;;;;;;;;;;5071423;28;20325;-73
2021/12/29 14:01:15;;;;;;;;;;;;;;;;;;5070273;28;19932;-73
2021/12/29 14:03:42;;;;;;;;;;;;;;;;;;5071180;28;20310;-74
2021/12/29 14:06:09;;;;;;;;;;;;;;;;;;5070789;28;19925;-74
2021/12/29 14:08:36;;;;;;;;;;;;;;;;;;5070664;28;19930;-74
2021/12/29 14:11:03;;;;;;;;;;;;;;;;;;5070507;28;19936;-74
2021/12/29 14:13:34;;;;;;;;;;;;;;;;;;5070807;28;19925;-74
2021/12/29 14:16:00;;;;;;;;;;;;;;;;;;5070970;28;19925;-75
2021/12/29 14:18:28;;;;;;;;;;;;;;;;;;5071343;28;19924;-74
2021/12/29 14:20:55;;;;;;;;;;;;;;;;;;5070451;28;20393;-74
2021/12/29 14:23:22;;;;;;;;;;;;;;;;;;5070328;28;19924;-74
2021/12/29 14:25:49;;;;;;;;;;;;;;;;;;5071108;28;20310;-74
2021/12/29 14:28:16;;;;;;;;;;;;;;;;;;5070789;28;19925;-73
2021/12/29 14:30:44;;;;;;;;;;;;;;;;;;5070494;28;19925;-73
2021/12/29 14:33:11;;;;;;;;;;;;;;;;;;5070743;28;20216;-73
2021/12/29 14:35:38;;;;;;;;;;;;;;;;;;5070636;28;19928;-73
2021/12/29 14:38:05;;;;;;;;;;;;;;;;;;5070895;28;19936;-73
2021/12/29 14:40:32;;;;;;;;;;;;;;;;;;5068739;28;19932;-73
2021/12/29 14:42:58;;;;;;;;;;;;;;;;;;5067268;28;20263;-73
2021/12/29 14:45:25;;;;;;;;;;;;;;;;;;5070549;28;19936;-75
2021/12/29 14:47:53;;;;;;;;;;;;;;;;;;5070882;28;20259;-74
2021/12/29 14:50:20;;;;;;;;;;;;;;;;;;5069958;28;19924;-76
2021/12/29 14:52:47;;;;;;;;;;;;;;;;;;5068026;28;19931;-75
2021/12/29 14:55:14;;;;;;;;;;;;;;;;;;5060551;28;19931;-75
2021/12/29 14:57:42;;;;;;;;;;;;;;;;;;5073740;28;19931;-75
2021/12/29 15:00:09;;;;;;;;;;;;;;;;;;5073358;28;19930;-75
2021/12/29 15:02:36;;;;;;;;;;;;;;;;;;5073823;28;20102;-74
2021/12/29 15:05:03;;;;;;;;;;;;;;;;;;5073827;28;19925;-74
2021/12/29 15:07:30;;;;;;;;;;;;;;;;;;5073733;28;20417;-74
2021/12/29 15:09:57;;;;;;;;;;;;;;;;;;5073270;28;19924;-76
2021/12/29 15:12:24;;;;;;;;;;;;;;;;;;5073855;28;19924;-76
2021/12/29 15:14:51;;;;;;;;;;;;;;;;;;5073724;28;19931;-77
2021/12/29 15:17:18;;;;;;;;;;;;;;;;;;5073755;28;20132;-77
2021/12/29 15:19:44;;;;;;;;;;;;;;;;;;5073330;28;19936;-76
2021/12/29 15:22:11;;;;;;;;;;;;;;;;;;5073280;28;20382;-78
2021/12/29 15:24:38;;;;;;;;;;;;;;;;;;5073876;28;19928;-78
2021/12/29 15:27:05;;;;;;;;;;;;;;;;;;5074250;28;19931;-77
2021/12/29 15:29:32;;;;;;;;;;;;;;;;;;5073748;28;19931;-77
2021/12/29 15:32:00;;;;;;;;;;;;;;;;;;5068102;28;19924;-77
2021/12/29 15:34:27;;;;;;;;;;;;;;;;;;5074212;28;20356;-75
2021/12/29 15:36:54;;;;;;;;;;;;;;;;;;5073558;28;19924;-78
2021/12/29 15:39:23;;;;;;;;;;;;;;;;;;5073787;28;19925;-77
2021/12/29 15:41:50;;;;;;;;;;;;;;;;;;5068060;28;19970;-75
2021/12/29 15:44:17;;;;;;;;;;;;;;;;;;5073499;28;20332;-77
2021/12/29 15:46:43;;;;;;;;;;;;;;;;;;5072956;28;19928;-77
2021/12/29 15:49:10;;;;;;;;;;;;;;;;;;5073240;28;19931;-77
2021/12/29 15:51:37;;;;;;;;;;;;;;;;;;5072721;28;19925;-78
2021/12/29 15:54:04;;;;;;;;;;;;;;;;;;5073196;28;19932;-76
2021/12/29 15:56:31;;;;;;;;;;;;;;;;;;5073236;28;20286;-77
2021/12/29 15:58:58;;;;;;;;;;;;;;;;;;5073024;28;19934;-77
2021/12/29 16:01:26;;;;;;;;;;;;;;;;;;5072235;28;19954;-77
2021/12/29 16:03:55;;;;;;;;;;;;;;;;;;5073004;28;20348;-76
2021/12/29 16:06:22;;;;;;;;;;;;;;;;;;5071965;28;19947;-77
2021/12/29 16:08:49;;;;;;;;;;;;;;;;;;5071707;28;20361;-76
2021/12/29 16:11:16;;;;;;;;;;;;;;;;;;5072392;28;19925;-76
2021/12/29 16:13:43;;;;;;;;;;;;;;;;;;5072429;28;19924;-77
2021/12/29 16:16:10;;;;;;;;;;;;;;;;;;5072603;28;19932;-76
2021/12/29 16:18:39;;;;;;;;;;;;;;;;;;5073082;28;19955;-78
2021/12/29 16:21:08;;;;;;;;;;;;;;;;;;5071657;28;20026;-77
2021/12/29 16:23:35;;;;;;;;;;;;;;;;;;5072594;28;19928;-74
2021/12/29 16:26:02;;;;;;;;;;;;;;;;;;5072493;28;19972;-77
2021/12/29 16:28:29;;;;;;;;;;;;;;;;;;5072375;28;20010;-76
2021/12/29 16:30:56;;;;;;;;;;;;;;;;;;5071894;28;19950;-76
2021/12/29 16:33:23;;;;;;;;;;;;;;;;;;5072805;28;20309;-76
2021/12/29 16:35:49;;;;;;;;;;;;;;;;;;5072316;28;20302;-76
2021/12/29 16:38:16;;;;;;;;;;;;;;;;;;5071783;28;19925;-76
2021/12/29 16:40:43;;;;;;;;;;;;;;;;;;5071427;28;19928;-76
2021/12/29 16:43:10;;;;;;;;;;;;;;;;;;5072242;28;19929;-77
2021/12/29 16:45:37;;;;;;;;;;;;;;;;;;5072168;28;19924;-77